Time;durP1;ratioP1;P1;durP2;ratioP2;P2;SDS_P1;SDS_P2;PMS_P1;PMS_P2;Temp;Humidity;BMP_temperature;BMP_pressure;BME280_temperature;BME280_humidity;BME280_pressure;Samples;Min_cycle;Max_cycle;Signal;HPM_P1;HPM_P2
2023/03/25 00:01:32;;;;;;;11.82;6.62;;;;;;;;;;4292118;33;20075;-72
2023/03/25 00:03:59;;;;;;;11.77;5.97;;;;;;;;;;4291551;33;20457;-71
2023/03/25 00:06:27;;;;;;;16.23;6.55;;;;;;;;;;4295538;33;20479;-70
2023/03/25 00:08:53;;;;;;;12.20;5.80;;;;;;;;;;4307623;33;20065;-70
2023/03/25 00:11:20;;;;;;;8.52;5.40;;;;;;;;;;4307396;33;20052;-73
2023/03/25 00:13:47;;;;;;;15.45;6.47;;;;;;;;;;4305547;33;20371;-70
2023/03/25 00:16:13;;;;;;;10.98;6.40;;;;;;;;;;4306901;33;20079;-71
2023/03/25 00:18:40;;;;;;;14.95;6.72;;;;;;;;;;4307020;33;20849;-69
2023/03/25 00:21:09;;;;;;;11.95;6.35;;;;;;;;;;4297692;33;20065;-70
2023/03/25 00:23:35;;;;;;;12.50;5.90;;;;;;;;;;4263856;33;20173;-71
2023/03/25 00:26:02;;;;;;;9.68;5.60;;;;;;;;;;4263290;33;20235;-70
2023/03/25 00:28:33;;;;;;;9.43;5.50;;;;;;;;;;4271925;33;20163;-70
2023/03/25 00:31:00;;;;;;;11.68;6.60;;;;;;;;;;4277627;33;20053;-70
2023/03/25 00:33:27;;;;;;;12.00;6.37;;;;;;;;;;4301738;33;20429;-72
2023/03/25 00:35:58;;;;;;;12.52;5.78;;;;;;;;;;4290952;33;20057;-69
2023/03/25 00:38:32;;;;;;;8.60;5.30;;;;;;;;;;4278203;33;20616;-69
2023/03/25 00:41:06;;;;;;;16.00;6.80;;;;;;;;;;4263030;33;20411;-69
2023/03/25 00:43:32;;;;;;;12.52;6.12;;;;;;;;;;4247882;33;20376;-69
2023/03/25 00:45:59;;;;;;;11.45;6.45;;;;;;;;;;4249200;33;20935;-70
2023/03/25 00:48:26;;;;;;;11.70;5.90;;;;;;;;;;4250063;33;20474;-71
2023/03/25 00:50:52;;;;;;;11.70;6.57;;;;;;;;;;4246908;33;20076;-69
2023/03/25 00:53:18;;;;;;;10.38;6.30;;;;;;;;;;4234816;33;20425;-71
2023/03/25 00:55:44;;;;;;;10.45;5.50;;;;;;;;;;4234364;33;20068;-69
2023/03/25 00:58:10;;;;;;;13.40;6.55;;;;;;;;;;4249350;33;20046;-69
2023/03/25 03:00:43;;;;;;;7.80;5.68;;;;;;;;;;4719050;28;20095;-69
2023/03/25 03:03:11;;;;;;;12.90;6.07;;;;;;;;;;4244919;33;20049;-69
2023/03/25 03:05:39;;;;;;;8.80;5.28;;;;;;;;;;4251213;33;20093;-69
2023/03/25 03:08:26;;;;;;;9.25;5.28;;;;;;;;;;4250144;33;20060;-70
2023/03/25 03:11:12;;;;;;;13.55;5.57;;;;;;;;;;4237124;33;20047;-70
2023/03/25 03:13:50;;;;;;;12.85;5.75;;;;;;;;;;4220712;33;20158;-70
2023/03/25 03:16:24;;;;;;;10.02;5.55;;;;;;;;;;4236701;33;20477;-69
2023/03/25 03:18:53;;;;;;;12.75;5.75;;;;;;;;;;4222393;34;20385;-69
2023/03/25 03:21:28;;;;;;;11.57;6.75;;;;;;;;;;4220995;33;20035;-72
2023/03/25 03:24:01;;;;;;;11.00;5.22;;;;;;;;;;4194335;34;20060;-69
2023/03/25 03:26:39;;;;;;;12.68;5.93;;;;;;;;;;4181201;34;20048;-69
2023/03/25 03:29:11;;;;;;;9.13;6.00;;;;;;;;;;4180168;34;20047;-69
2023/03/25 03:31:38;;;;;;;;;;;;;;;;;;4181377;34;20162;-69
2023/03/25 03:34:09;;;;;;;9.07;5.50;;;;;;;;;;4176159;34;19955;-69
2023/03/25 03:36:41;;;;;;;9.05;5.60;;;;;;;;;;4167094;34;20535;-69
2023/03/25 03:39:15;;;;;;;11.98;5.70;;;;;;;;;;4166074;34;20180;-72
2023/03/25 03:41:42;;;;;;;13.02;6.05;;;;;;;;;;4172478;34;20036;-69
2023/03/25 03:44:11;;;;;;;12.77;5.65;;;;;;;;;;4184456;34;20043;-69
2023/03/25 03:46:40;;;;;;;12.00;6.35;;;;;;;;;;4174989;34;20075;-70
2023/03/25 03:49:09;;;;;;;12.15;5.62;;;;;;;;;;4152103;34;20086;-70
2023/03/25 03:51:37;;;;;;;12.90;6.35;;;;;;;;;;4164555;34;20052;-69
2023/03/25 03:54:07;;;;;;;10.10;5.20;;;;;;;;;;4181268;34;20056;-70
2023/03/25 03:56:35;;;;;;;14.13;5.65;;;;;;;;;;4192262;33;20070;-70
2023/03/25 03:59:09;;;;;;;12.02;5.47;;;;;;;;;;4233898;33;20038;-69
2023/03/25 04:01:47;;;;;;;11.20;5.53;;;;;;;;;;4236340;33;20789;-69
2023/03/25 04:04:25;;;;;;;12.07;6.72;;;;;;;;;;4236223;33;20440;-69
2023/03/25 04:06:56;;;;;;;8.23;5.28;;;;;;;;;;4234871;33;20062;-69
2023/03/25 04:09:42;;;;;;;16.75;7.07;;;;;;;;;;4208220;34;20050;-69
2023/03/25 04:12:08;;;;;;;8.88;5.70;;;;;;;;;;4192686;34;20144;-71
2023/03/25 04:14:38;;;;;;;11.90;5.93;;;;;;;;;;4193937;34;20491;-69
2023/03/25 04:17:04;;;;;;;11.90;5.40;;;;;;;;;;4193928;34;20036;-70
2023/03/25 04:19:32;;;;;;;12.00;5.47;;;;;;;;;;4178745;34;20052;-69
2023/03/25 04:22:02;;;;;;;8.95;5.55;;;;;;;;;;4194065;34;20031;-71
2023/03/25 04:24:36;;;;;;;11.23;6.35;;;;;;;;;;4190515;34;20063;-69
2023/03/25 04:27:03;;;;;;;12.52;6.03;;;;;;;;;;4167191;34;20070;-69
2023/03/25 04:29:30;;;;;;;9.65;6.22;;;;;;;;;;4167052;34;20052;-69
2023/03/25 04:31:56;;;;;;;12.82;6.32;;;;;;;;;;4166192;34;20044;-69
2023/03/25 04:34:29;;;;;;;10.55;5.78;;;;;;;;;;4152915;34;20045;-69
2023/03/25 04:36:55;;;;;;;13.50;6.15;;;;;;;;;;4149122;34;20481;-69
2023/03/25 04:39:21;;;;;;;8.90;5.60;;;;;;;;;;4139792;34;20042;-68
2023/03/25 04:41:52;;;;;;;9.63;6.15;;;;;;;;;;4166429;34;20240;-69
2023/03/25 04:44:20;;;;;;;9.90;5.87;;;;;;;;;;4177161;34;20056;-69
2023/03/25 04:46:47;;;;;;;11.65;6.65;;;;;;;;;;4161862;34;20185;-69
2023/03/25 04:49:18;;;;;;;20.33;8.90;;;;;;;;;;4174378;34;20480;-70
2023/03/25 04:51:44;;;;;;;17.98;7.03;;;;;;;;;;4170591;34;20129;-71
2023/03/25 04:54:10;;;;;;;14.63;6.82;;;;;;;;;;4152023;34;20052;-72
2023/03/25 04:56:38;;;;;;;19.05;7.32;;;;;;;;;;4163324;34;20390;-69
2023/03/25 04:59:05;;;;;;;14.98;6.25;;;;;;;;;;4191912;34;20400;-68
2023/03/25 05:01:31;;;;;;;10.85;6.90;;;;;;;;;;4193289;34;20394;-68
2023/03/25 05:04:04;;;;;;;15.07;7.20;;;;;;;;;;4179566;34;20066;-69
2023/03/25 05:06:31;;;;;;;13.50;6.50;;;;;;;;;;4191188;34;20032;-69
2023/03/25 05:09:00;;;;;;;11.77;5.80;;;;;;;;;;4193717;34;20445;-69
2023/03/25 05:11:27;;;;;;;10.25;6.30;;;;;;;;;;4179398;34;20542;-69
2023/03/25 05:13:54;;;;;;;16.15;7.53;;;;;;;;;;4179954;34;20073;-69
2023/03/25 05:16:20;;;;;;;11.20;6.45;;;;;;;;;;4177776;34;20457;-72
2023/03/25 05:18:46;;;;;;;13.40;6.35;;;;;;;;;;4179091;34;20988;-69
2023/03/25 05:21:13;;;;;;;18.12;7.70;;;;;;;;;;4180586;34;20093;-70
2023/03/25 05:23:40;;;;;;;16.35;6.37;;;;;;;;;;4179637;34;20051;-70
2023/03/25 05:26:07;;;;;;;11.88;6.78;;;;;;;;;;4190448;34;20040;-70
2023/03/25 05:28:34;;;;;;;11.63;6.25;;;;;;;;;;4182104;34;20073;-70
2023/03/25 05:31:07;;;;;;;9.15;4.90;;;;;;;;;;4216285;34;20830;-70
2023/03/25 05:33:41;;;;;;;9.23;5.75;;;;;;;;;;4221832;33;20058;-69
2023/03/25 05:36:08;;;;;;;13.68;6.68;;;;;;;;;;4221266;34;20246;-70
2023/03/25 05:38:36;;;;;;;8.93;5.43;;;;;;;;;;4219296;34;20129;-69
2023/03/25 05:41:01;;;;;;;8.88;6.00;;;;;;;;;;4221252;34;20072;-69
2023/03/25 05:43:34;;;;;;;9.70;5.78;;;;;;;;;;4248092;33;20081;-70
2023/03/25 05:46:00;;;;;;;11.27;6.20;;;;;;;;;;4250674;33;20043;-70
2023/03/25 05:48:31;;;;;;;13.38;7.15;;;;;;;;;;4248654;33;20049;-70
2023/03/25 05:50:58;;;;;;;14.18;6.85;;;;;;;;;;4234357;33;20065;-70
2023/03/25 05:53:25;;;;;;;11.88;5.80;;;;;;;;;;4235164;33;20064;-71
2023/03/25 05:55:51;;;;;;;13.57;6.72;;;;;;;;;;4235210;33;20639;-70
2023/03/25 05:58:18;;;;;;;12.45;7.07;;;;;;;;;;4239110;33;20254;-70
2023/03/25 06:00:45;;;;;;;9.85;6.65;;;;;;;;;;4238201;33;20051;-71
2023/03/25 06:03:12;;;;;;;15.02;7.15;;;;;;;;;;4238515;33;20049;-70
2023/03/25 06:05:38;;;;;;;11.38;6.60;;;;;;;;;;4237593;33;20377;-70
2023/03/25 06:10:37;;;;;;;;;;;;;;;;;;4244735;33;20304;-71
2023/03/25 06:13:03;;;;;;;8.80;5.40;;;;;;;;;;4242177;33;19981;-71
2023/03/25 06:15:32;;;;;;;10.45;6.72;;;;;;;;;;4241927;33;20068;-70
2023/03/25 06:17:59;;;;;;;9.85;6.18;;;;;;;;;;4243481;33;20054;-70
2023/03/25 06:20:25;;;;;;;12.02;6.85;;;;;;;;;;4245516;33;20488;-73
2023/03/25 06:22:51;;;;;;;13.43;6.43;;;;;;;;;;4250082;33;20157;-70
2023/03/25 06:25:22;;;;;;;7.95;4.80;;;;;;;;;;4225217;34;20055;-70
2023/03/25 06:27:49;;;;;;;8.48;5.22;;;;;;;;;;4237415;33;20186;-70
2023/03/25 06:30:16;;;;;;;7.20;5.22;;;;;;;;;;4238663;33;20094;-69
2023/03/25 06:32:43;;;;;;;6.90;4.68;;;;;;;;;;4239917;33;20054;-70
2023/03/25 06:35:10;;;;;;;10.75;5.57;;;;;;;;;;4238348;33;20053;-69
2023/03/25 06:37:36;;;;;;;8.35;4.93;;;;;;;;;;4237512;33;20043;-69
2023/03/25 06:40:05;;;;;;;8.80;4.12;;;;;;;;;;4237555;33;20031;-69
2023/03/25 06:42:31;;;;;;;7.65;5.20;;;;;;;;;;4237097;33;20490;-73
2023/03/25 06:45:03;;;;;;;7.10;4.50;;;;;;;;;;4222396;33;20373;-69
2023/03/25 06:47:33;;;;;;;5.68;4.60;;;;;;;;;;4205632;34;20154;-69
2023/03/25 06:49:59;;;;;;;8.45;4.40;;;;;;;;;;4195312;34;20044;-70
2023/03/25 06:52:25;;;;;;;8.57;6.05;;;;;;;;;;4194817;34;20101;-70
2023/03/25 06:54:51;;;;;;;8.77;5.10;;;;;;;;;;4179373;34;20143;-70
2023/03/25 06:57:17;;;;;;;11.30;4.32;;;;;;;;;;4194664;34;20052;-69
2023/03/25 06:59:44;;;;;;;7.85;4.03;;;;;;;;;;4200788;34;20151;-69
2023/03/25 07:02:11;;;;;;;7.05;4.15;;;;;;;;;;4208827;34;20047;-68
2023/03/25 07:04:37;;;;;;;6.85;4.60;;;;;;;;;;4195005;34;20067;-70
2023/03/25 07:07:03;;;;;;;9.57;4.32;;;;;;;;;;4192976;34;20057;-73
2023/03/25 07:09:30;;;;;;;8.23;4.35;;;;;;;;;;4208880;34;20047;-71
2023/03/25 07:11:56;;;;;;;10.40;4.32;;;;;;;;;;4185925;34;20048;-70
2023/03/25 07:14:22;;;;;;;7.93;4.72;;;;;;;;;;4179926;34;20386;-71
2023/03/25 07:16:49;;;;;;;14.43;4.28;;;;;;;;;;4179391;34;20214;-70
2023/03/25 07:19:15;;;;;;;6.22;4.53;;;;;;;;;;4168782;34;20789;-70
2023/03/25 07:21:41;;;;;;;7.00;3.45;;;;;;;;;;4170280;34;20439;-69
2023/03/25 07:24:07;;;;;;;8.57;4.25;;;;;;;;;;4194663;34;20117;-69
2023/03/25 07:26:34;;;;;;;7.47;3.60;;;;;;;;;;4205819;34;20055;-69
2023/03/25 07:29:00;;;;;;;5.53;3.72;;;;;;;;;;4211941;34;20070;-70
2023/03/25 07:31:26;;;;;;;8.52;3.58;;;;;;;;;;4214847;33;20059;-70
2023/03/25 07:33:52;;;;;;;9.98;4.10;;;;;;;;;;4221484;33;20069;-70
2023/03/25 07:36:20;;;;;;;5.10;3.12;;;;;;;;;;4222689;33;20046;-70
2023/03/25 07:38:47;;;;;;;4.97;3.03;;;;;;;;;;4222380;33;20047;-69
2023/03/25 07:41:13;;;;;;;8.88;3.87;;;;;;;;;;4230288;33;20050;-73
2023/03/25 07:43:42;;;;;;;3.65;3.33;;;;;;;;;;4253209;33;20174;-70
2023/03/25 07:46:10;;;;;;;9.32;3.72;;;;;;;;;;4250918;33;20075;-69
2023/03/25 07:48:36;;;;;;;6.50;3.62;;;;;;;;;;4244584;33;20043;-68
2023/03/25 07:51:02;;;;;;;8.63;4.25;;;;;;;;;;4221368;33;20051;-69
2023/03/25 07:53:28;;;;;;;8.45;3.55;;;;;;;;;;4220648;34;20094;-71
2023/03/25 07:55:54;;;;;;;5.40;3.00;;;;;;;;;;4222356;34;20441;-69
2023/03/25 07:58:20;;;;;;;12.57;3.33;;;;;;;;;;4221850;34;20070;-69
2023/03/25 08:00:47;;;;;;;7.15;3.97;;;;;;;;;;4192702;34;20638;-69
2023/03/25 08:03:14;;;;;;;6.12;3.90;;;;;;;;;;4196459;34;20104;-70
2023/03/25 08:05:46;;;;;;;11.40;3.85;;;;;;;;;;4188150;34;20066;-72
2023/03/25 08:08:12;;;;;;;8.10;3.90;;;;;;;;;;4193590;34;20784;-70
2023/03/25 08:10:42;;;;;;;10.43;3.70;;;;;;;;;;4168656;34;20048;-71
2023/03/25 08:13:09;;;;;;;3.95;2.72;;;;;;;;;;4167673;34;20365;-69
2023/03/25 08:15:36;;;;;;;6.72;3.65;;;;;;;;;;4165415;34;20432;-73
2023/03/25 08:18:05;;;;;;;11.50;3.80;;;;;;;;;;4164455;34;20178;-69
2023/03/25 08:20:32;;;;;;;6.12;3.03;;;;;;;;;;4166498;34;20074;-71
2023/03/25 08:22:58;;;;;;;6.20;3.33;;;;;;;;;;4159152;34;20103;-70
2023/03/25 08:25:25;;;;;;;5.78;3.03;;;;;;;;;;4175706;34;20107;-70
2023/03/25 08:27:51;;;;;;;6.75;3.10;;;;;;;;;;4177411;34;20065;-72
2023/03/25 08:30:17;;;;;;;5.97;3.92;;;;;;;;;;4178133;34;20087;-69
2023/03/25 08:32:52;;;;;;;5.47;3.10;;;;;;;;;;4192164;34;20055;-70
2023/03/25 08:35:20;;;;;;;8.05;3.53;;;;;;;;;;4203452;34;20051;-70
2023/03/25 08:37:47;;;;;;;9.25;4.10;;;;;;;;;;4206262;34;20462;-71
2023/03/25 08:40:16;;;;;;;7.50;3.50;;;;;;;;;;4219113;34;20047;-70
2023/03/25 08:42:42;;;;;;;7.22;2.92;;;;;;;;;;4220463;33;20078;-70
2023/03/25 08:45:09;;;;;;;8.48;3.17;;;;;;;;;;4221506;33;20080;-70
2023/03/25 08:47:34;;;;;;;8.13;3.05;;;;;;;;;;4223916;33;20080;-70
2023/03/25 08:50:01;;;;;;;6.25;3.35;;;;;;;;;;4219906;34;20425;-70
2023/03/25 08:52:27;;;;;;;9.73;2.67;;;;;;;;;;4226640;33;20089;-70
2023/03/25 08:54:53;;;;;;;3.33;2.55;;;;;;;;;;4226369;33;20058;-70
2023/03/25 08:57:19;;;;;;;8.23;2.90;;;;;;;;;;4220570;33;20061;-70
2023/03/25 08:59:46;;;;;;;15.50;3.95;;;;;;;;;;4206200;34;20077;-71
2023/03/25 09:02:12;;;;;;;11.60;3.17;;;;;;;;;;4204914;34;20051;-73
2023/03/25 09:04:38;;;;;;;12.27;3.28;;;;;;;;;;4183914;34;20085;-70
2023/03/25 09:07:09;;;;;;;6.75;3.20;;;;;;;;;;4179586;34;20067;-70
2023/03/25 09:09:36;;;;;;;3.08;2.00;;;;;;;;;;4179053;34;20440;-69
2023/03/25 09:12:02;;;;;;;4.28;3.00;;;;;;;;;;4177244;34;20044;-70
2023/03/25 09:14:29;;;;;;;4.10;2.08;;;;;;;;;;4179652;34;20076;-69
2023/03/25 09:16:55;;;;;;;5.95;2.10;;;;;;;;;;4185908;34;20086;-69
2023/03/25 09:19:21;;;;;;;3.22;1.87;;;;;;;;;;4182179;34;20079;-69
2023/03/25 09:21:47;;;;;;;6.15;2.25;;;;;;;;;;4190153;34;20090;-70
2023/03/25 09:24:13;;;;;;;3.85;2.20;;;;;;;;;;4193596;34;20509;-71
2023/03/25 09:26:39;;;;;;;3.80;2.58;;;;;;;;;;4213369;33;20130;-69
2023/03/25 09:29:06;;;;;;;6.53;2.35;;;;;;;;;;4220603;33;20442;-70
2023/03/25 09:31:32;;;;;;;4.60;2.22;;;;;;;;;;4230076;33;20167;-70
2023/03/25 09:33:58;;;;;;;9.77;3.03;;;;;;;;;;4236875;33;20068;-71
2023/03/25 09:36:24;;;;;;;13.80;2.83;;;;;;;;;;4235917;33;20181;-69
2023/03/25 09:38:51;;;;;;;13.77;2.90;;;;;;;;;;4232536;33;20552;-69
2023/03/25 09:41:25;;;;;;;5.75;3.00;;;;;;;;;;4234331;33;20140;-69
2023/03/25 09:43:51;;;;;;;7.53;2.83;;;;;;;;;;4237146;33;20050;-69
2023/03/25 09:46:17;;;;;;;5.43;2.65;;;;;;;;;;4241430;33;20082;-69
2023/03/25 09:48:45;;;;;;;6.35;3.53;;;;;;;;;;4234939;33;20055;-69
2023/03/25 09:51:19;;;;;;;5.78;2.80;;;;;;;;;;4236433;33;20066;-69
2023/03/25 09:53:49;;;;;;;9.43;2.83;;;;;;;;;;4234948;33;20060;-68
2023/03/25 09:56:18;;;;;;;6.25;2.95;;;;;;;;;;4234516;33;20043;-69
2023/03/25 09:58:46;;;;;;;5.47;2.25;;;;;;;;;;4233282;33;20062;-70
2023/03/25 10:01:21;;;;;;;3.55;1.75;;;;;;;;;;4235828;33;20120;-69
2023/03/25 10:04:09;;;;;;;4.40;1.90;;;;;;;;;;4249194;33;20089;-69
2023/03/25 10:06:43;;;;;;;5.82;2.20;;;;;;;;;;4248801;33;20112;-69
2023/03/25 10:09:15;;;;;;;5.97;2.05;;;;;;;;;;4236574;33;20173;-68
2023/03/25 10:11:48;;;;;;;6.70;2.70;;;;;;;;;;4233326;33;20456;-68
2023/03/25 10:14:18;;;;;;;2.97;2.20;;;;;;;;;;4231888;33;20161;-71
2023/03/25 10:17:03;;;;;;;7.45;2.33;;;;;;;;;;4219346;34;20039;-68
2023/03/25 10:19:32;;;;;;;4.37;2.08;;;;;;;;;;4219535;33;20450;-69
2023/03/25 10:22:10;;;;;;;8.23;2.62;;;;;;;;;;4215526;33;20051;-71
2023/03/25 10:24:46;;;;;;;8.32;3.10;;;;;;;;;;4216440;34;20042;-68
2023/03/25 10:27:18;;;;;;;9.20;2.47;;;;;;;;;;4218699;33;20051;-68
2023/03/25 10:29:48;;;;;;;3.78;1.87;;;;;;;;;;4216893;33;20051;-68
2023/03/25 10:32:16;;;;;;;4.87;2.08;;;;;;;;;;4219582;34;20054;-68
2023/03/25 10:34:48;;;;;;;3.12;1.42;;;;;;;;;;4219588;34;20072;-69
2023/03/25 10:37:27;;;;;;;4.93;1.95;;;;;;;;;;4219105;34;20080;-70
2023/03/25 10:39:57;;;;;;;8.65;2.42;;;;;;;;;;4223701;33;20080;-67
2023/03/25 10:42:30;;;;;;;4.70;1.65;;;;;;;;;;4209045;34;20043;-67
2023/03/25 10:44:56;;;;;;;5.20;3.03;;;;;;;;;;4192315;34;20096;-69
2023/03/25 10:47:25;;;;;;;7.85;1.80;;;;;;;;;;4191296;34;20036;-70
2023/03/25 10:49:53;;;;;;;6.97;1.98;;;;;;;;;;4174571;34;20063;-70
2023/03/25 10:52:19;;;;;;;4.97;1.75;;;;;;;;;;4140259;34;20045;-69
2023/03/25 10:54:48;;;;;;;2.92;1.50;;;;;;;;;;4165984;34;20048;-71
2023/03/25 10:57:19;;;;;;;2.30;1.87;;;;;;;;;;4146215;34;20049;-75
2023/03/25 11:00:07;;;;;;;1.10;0.88;;;;;;;;;;4147403;34;21023;-73
2023/03/25 11:02:34;;;;;;;0.90;0.90;;;;;;;;;;4161805;34;20675;-73
2023/03/25 11:05:03;;;;;;;2.90;1.40;;;;;;;;;;4164319;34;20052;-73
2023/03/25 11:07:34;;;;;;;1.30;1.30;;;;;;;;;;4154632;34;20086;-72
2023/03/25 11:10:33;;;;;;;4.03;1.25;;;;;;;;;;4155295;34;20062;-71
2023/03/25 11:13:02;;;;;;;1.65;1.42;;;;;;;;;;4133690;34;20079;-71
2023/03/25 11:15:30;;;;;;;8.48;2.22;;;;;;;;;;4135799;34;20112;-71
2023/03/25 11:18:03;;;;;;;3.10;2.80;;;;;;;;;;4131865;34;20424;-70
2023/03/25 11:20:36;;;;;;;9.05;3.55;;;;;;;;;;4135177;34;20078;-71
2023/03/25 11:23:01;;;;;;;;;;;;;;;;;;4155359;34;20052;-71
2023/03/25 11:25:40;;;;;;;8.52;4.65;;;;;;;;;;4182965;34;19955;-71
2023/03/25 11:28:12;;;;;;;4.87;3.47;;;;;;;;;;4194381;34;20452;-70
2023/03/25 11:30:58;;;;;;;8.45;3.95;;;;;;;;;;4198503;34;20394;-70
2023/03/25 11:33:25;;;;;;;9.95;4.47;;;;;;;;;;4197313;34;20502;-70
2023/03/25 11:35:52;;;;;;;4.82;3.10;;;;;;;;;;4206755;34;20381;-69
2023/03/25 11:38:19;;;;;;;8.65;3.70;;;;;;;;;;4205308;34;20113;-74
2023/03/25 11:40:51;;;;;;;9.60;3.15;;;;;;;;;;4194078;34;20077;-70
2023/03/25 11:43:22;;;;;;;9.60;4.10;;;;;;;;;;4190085;34;20100;-71
2023/03/25 11:45:49;;;;;;;3.42;2.92;;;;;;;;;;4177810;34;20056;-71
2023/03/25 11:48:19;;;;;;;7.20;3.55;;;;;;;;;;4176395;34;20043;-75
2023/03/25 11:50:53;;;;;;;8.75;3.28;;;;;;;;;;4183170;34;20077;-69
2023/03/25 11:53:19;;;;;;;9.82;3.47;;;;;;;;;;4194880;34;20055;-69
2023/03/25 11:55:48;;;;;;;3.97;3.12;;;;;;;;;;4192514;34;20426;-70
2023/03/25 11:58:21;;;;;;;7.82;3.37;;;;;;;;;;4197066;33;20057;-69
2023/03/25 12:00:56;;;;;;;4.72;3.37;;;;;;;;;;4383857;28;20066;-70
2023/03/25 12:03:26;;;;;;;4.28;2.17;;;;;;;;;;4194693;34;20035;-72
2023/03/25 12:05:56;;;;;;;8.77;2.72;;;;;;;;;;4210820;34;21063;-70
2023/03/25 12:08:22;;;;;;;3.60;2.10;;;;;;;;;;4207061;34;20043;-70
2023/03/25 12:11:10;;;;;;;9.73;4.57;;;;;;;;;;4222099;34;20082;-71
2023/03/25 12:13:42;;;;;;;5.93;2.85;;;;;;;;;;4208428;34;20050;-70
2023/03/25 12:16:10;;;;;;;3.17;2.45;;;;;;;;;;4209680;34;20058;-70
2023/03/25 12:18:46;;;;;;;5.25;2.30;;;;;;;;;;4209508;34;20843;-70
2023/03/25 12:21:21;;;;;;;7.00;2.58;;;;;;;;;;4209982;34;20800;-71
2023/03/25 12:23:47;;;;;;;2.55;1.87;;;;;;;;;;4223062;34;20042;-71
2023/03/25 12:26:16;;;;;;;6.50;2.37;;;;;;;;;;4226142;34;20073;-72
2023/03/25 12:29:02;;;;;;;5.47;2.12;;;;;;;;;;4237193;33;20200;-69
2023/03/25 12:31:47;;;;;;;2.45;2.20;;;;;;;;;;4237460;33;20046;-72
2023/03/25 12:34:25;;;;;;;6.90;2.45;;;;;;;;;;4249632;33;20109;-71
2023/03/25 12:36:54;;;;;;;9.23;2.17;;;;;;;;;;4235002;33;20094;-69
2023/03/25 12:39:39;;;;;;;2.97;2.00;;;;;;;;;;4238453;33;20178;-70
2023/03/25 12:42:24;;;;;;;5.97;2.30;;;;;;;;;;4234274;33;20123;-71
2023/03/25 12:45:05;;;;;;;3.65;2.03;;;;;;;;;;4216344;34;20089;-71
2023/03/25 12:47:38;;;;;;;12.95;1.98;;;;;;;;;;4220352;33;20565;-70
2023/03/25 12:50:18;;;;;;;3.62;1.42;;;;;;;;;;4222630;33;20522;-70
2023/03/25 12:52:50;;;;;;;8.40;2.00;;;;;;;;;;4220081;33;20072;-70
2023/03/25 12:55:45;;;;;;;4.80;2.08;;;;;;;;;;4222433;34;20057;-70
2023/03/25 12:58:21;;;;;;;5.20;2.33;;;;;;;;;;4178464;34;20055;-70
2023/03/25 13:00:52;;;;;;;5.35;1.42;;;;;;;;;;4186050;34;20459;-70
2023/03/25 13:03:19;;;;;;;;;;;;;;;;;;4178111;34;20043;-75
2023/03/25 13:05:48;;;;;;;1.83;1.05;;;;;;;;;;4174951;34;20377;-72
2023/03/25 13:08:15;;;;;;;1.12;1.00;;;;;;;;;;4166775;34;20475;-72
2023/03/25 13:10:42;;;;;;;1.87;1.10;;;;;;;;;;4165415;34;20106;-72
2023/03/25 13:13:11;;;;;;;3.62;1.27;;;;;;;;;;4165282;34;20060;-76
2023/03/25 13:15:40;;;;;;;4.80;1.02;;;;;;;;;;4169864;34;20057;-74
2023/03/25 13:18:13;;;;;;;2.72;1.05;;;;;;;;;;4189224;34;20398;-73
2023/03/25 13:20:41;;;;;;;4.47;1.17;;;;;;;;;;4181663;34;20043;-73
2023/03/25 13:23:12;;;;;;;1.20;1.20;;;;;;;;;;4182220;34;20129;-73
2023/03/25 13:25:44;;;;;;;2.72;0.90;;;;;;;;;;4177754;34;20051;-73
2023/03/25 13:28:14;;;;;;;2.95;1.33;;;;;;;;;;4181512;34;20329;-73
2023/03/25 13:30:42;;;;;;;1.90;1.42;;;;;;;;;;4180778;34;20040;-73
2023/03/25 13:33:14;;;;;;;2.78;1.40;;;;;;;;;;4207613;34;20051;-76
2023/03/25 13:35:50;;;;;;;1.92;1.30;;;;;;;;;;4234564;33;20272;-72
2023/03/25 13:38:19;;;;;;;5.65;1.60;;;;;;;;;;4232839;33;20063;-72
2023/03/25 13:41:06;;;;;;;0.98;0.98;;;;;;;;;;4220290;33;20203;-72
2023/03/25 13:43:55;;;;;;;3.33;1.20;;;;;;;;;;4215210;34;20185;-72
2023/03/25 13:46:26;;;;;;;1.40;1.30;;;;;;;;;;4208608;34;20186;-74
2023/03/25 13:49:02;;;;;;;6.28;2.85;;;;;;;;;;4218014;34;20058;-72
2023/03/25 13:51:28;;;;;;;1.67;1.58;;;;;;;;;;4221466;34;20039;-71
2023/03/25 13:53:58;;;;;;;2.10;1.73;;;;;;;;;;4205584;34;20080;-71
2023/03/25 13:56:39;;;;;;;1.30;1.30;;;;;;;;;;4205667;34;20150;-75
2023/03/25 13:59:09;;;;;;;1.60;1.37;;;;;;;;;;4196349;34;20055;-73
2023/03/25 14:01:55;;;;;;;1.23;1.20;;;;;;;;;;4214007;34;20040;-72
2023/03/25 14:04:38;;;;;;;6.07;1.60;;;;;;;;;;4203814;34;20094;-75
2023/03/25 14:07:17;;;;;;;6.00;1.45;;;;;;;;;;4205570;34;20111;-72
2023/03/25 14:09:51;;;;;;;8.02;1.77;;;;;;;;;;4191565;34;20380;-75
2023/03/25 14:12:28;;;;;;;6.70;2.25;;;;;;;;;;4191958;34;20043;-72
2023/03/25 14:14:58;;;;;;;2.78;1.90;;;;;;;;;;4190889;34;20073;-72
2023/03/25 14:17:25;;;;;;;4.50;2.42;;;;;;;;;;4190525;34;20089;-74
2023/03/25 14:19:54;;;;;;;4.10;1.60;;;;;;;;;;4192323;34;20152;-73
2023/03/25 14:22:22;;;;;;;2.12;1.70;;;;;;;;;;4193176;34;20081;-72
2023/03/25 14:24:48;;;;;;;2.35;1.67;;;;;;;;;;4191746;34;20040;-72
2023/03/25 14:27:14;;;;;;;3.22;1.58;;;;;;;;;;4202514;34;20420;-71
2023/03/25 14:29:43;;;;;;;1.65;1.30;;;;;;;;;;4203915;34;20108;-72
2023/03/25 14:32:14;;;;;;;1.42;1.35;;;;;;;;;;4204988;34;20745;-72
2023/03/25 14:34:42;;;;;;;1.62;1.52;;;;;;;;;;4205704;34;20063;-71
2023/03/25 14:37:08;;;;;;;3.28;2.40;;;;;;;;;;4206375;34;20139;-72
2023/03/25 14:39:34;;;;;;;4.20;2.10;;;;;;;;;;4206325;34;20067;-73
2023/03/25 14:42:01;;;;;;;2.97;2.15;;;;;;;;;;4234100;33;20119;-73
2023/03/25 14:44:31;;;;;;;3.55;1.95;;;;;;;;;;4236953;33;20067;-70
2023/03/25 14:47:01;;;;;;;2.60;1.62;;;;;;;;;;4236427;33;20129;-71
2023/03/25 14:49:53;;;;;;;9.13;1.92;;;;;;;;;;4235926;33;20062;-73
2023/03/25 14:52:42;;;;;;;4.80;1.83;;;;;;;;;;4236911;33;20035;-71
2023/03/25 14:55:14;;;;;;;4.95;2.58;;;;;;;;;;4228921;33;20084;-75
2023/03/25 14:57:44;;;;;;;3.22;2.08;;;;;;;;;;4236278;33;20055;-71
2023/03/25 15:00:20;;;;;;;2.33;2.00;;;;;;;;;;4237588;33;20066;-70
2023/03/25 15:02:50;;;;;;;6.37;2.58;;;;;;;;;;4229072;33;20060;-72
2023/03/25 15:05:19;;;;;;;2.15;1.92;;;;;;;;;;4225676;33;20072;-72
2023/03/25 15:07:47;;;;;;;2.75;2.10;;;;;;;;;;4221886;33;20186;-71
2023/03/25 15:10:21;;;;;;;2.10;1.90;;;;;;;;;;4206955;34;20051;-71
2023/03/25 15:12:51;;;;;;;5.78;2.90;;;;;;;;;;4193363;34;20051;-73
2023/03/25 15:15:25;;;;;;;3.37;2.28;;;;;;;;;;4179098;34;20163;-70
2023/03/25 15:17:51;;;;;;;3.00;2.30;;;;;;;;;;4179065;34;20278;-71
2023/03/25 15:20:20;;;;;;;4.55;2.78;;;;;;;;;;4185243;34;20067;-72
2023/03/25 15:23:06;;;;;;;2.78;2.45;;;;;;;;;;4191673;34;20096;-72
2023/03/25 15:25:34;;;;;;;3.25;2.45;;;;;;;;;;4191418;34;20127;-71
2023/03/25 15:28:00;;;;;;;3.17;2.60;;;;;;;;;;4197538;34;20039;-72
2023/03/25 15:30:29;;;;;;;2.87;2.42;;;;;;;;;;4205969;34;20854;-74
2023/03/25 15:33:15;;;;;;;5.78;2.60;;;;;;;;;;4207949;34;20951;-71
2023/03/25 15:35:47;;;;;;;4.53;2.53;;;;;;;;;;4207838;34;20469;-71
2023/03/25 15:38:13;;;;;;;;;;;;;;;;;;4207185;34;20067;-74
2023/03/25 15:40:49;;;;;;;2.78;2.33;;;;;;;;;;4209459;34;20482;-71
2023/03/25 15:43:21;;;;;;;6.32;2.65;;;;;;;;;;4221487;33;20035;-70
2023/03/25 15:45:47;;;;;;;;;;;;;;;;;;4239372;33;20070;-71
2023/03/25 15:48:20;;;;;;;6.60;2.25;;;;;;;;;;4239362;33;19968;-71
2023/03/25 15:51:05;;;;;;;2.40;2.00;;;;;;;;;;4237451;33;20606;-71
2023/03/25 15:53:50;;;;;;;2.97;1.92;;;;;;;;;;4236324;33;20085;-70
2023/03/25 15:56:21;;;;;;;2.17;1.62;;;;;;;;;;4237901;33;20437;-72
2023/03/25 15:58:53;;;;;;;7.03;3.50;;;;;;;;;;4223196;33;20076;-72
2023/03/25 16:01:24;;;;;;;5.28;2.05;;;;;;;;;;4217537;33;20590;-70
2023/03/25 16:03:56;;;;;;;1.10;1.10;;;;;;;;;;4209324;34;20055;-70
2023/03/25 16:06:24;;;;;;;2.92;1.30;;;;;;;;;;4210423;34;20396;-70
2023/03/25 16:08:51;;;;;;;4.50;1.45;;;;;;;;;;4207223;34;20092;-70
2023/03/25 16:11:20;;;;;;;4.75;1.80;;;;;;;;;;4232002;33;20050;-70
2023/03/25 16:13:46;;;;;;;1.10;1.10;;;;;;;;;;4211480;34;20039;-72
2023/03/25 16:16:14;;;;;;;2.05;1.17;;;;;;;;;;4174684;34;20074;-69
2023/03/25 16:18:42;;;;;;;3.47;1.58;;;;;;;;;;4194489;34;20176;-72
2023/03/25 16:21:08;;;;;;;1.60;1.50;;;;;;;;;;4194316;34;20051;-71
2023/03/25 16:23:35;;;;;;;1.62;1.52;;;;;;;;;;4195383;34;20514;-71
2023/03/25 16:26:03;;;;;;;4.20;1.85;;;;;;;;;;4190832;34;20437;-69
2023/03/25 16:28:33;;;;;;;4.80;1.85;;;;;;;;;;4206012;34;20043;-70
2023/03/25 16:31:01;;;;;;;2.62;1.90;;;;;;;;;;4207779;34;20078;-71
2023/03/25 16:33:28;;;;;;;5.20;2.12;;;;;;;;;;4206749;34;20258;-69
2023/03/25 16:35:59;;;;;;;2.17;2.00;;;;;;;;;;4205231;34;20072;-70
2023/03/25 16:38:26;;;;;;;3.67;2.75;;;;;;;;;;4207247;34;20050;-71
2023/03/25 16:40:58;;;;;;;4.00;2.47;;;;;;;;;;4207484;34;20058;-71
2023/03/25 16:43:26;;;;;;;3.83;1.77;;;;;;;;;;4206898;34;20065;-71
2023/03/25 16:45:55;;;;;;;3.05;2.28;;;;;;;;;;4218086;34;20062;-71
2023/03/25 16:48:26;;;;;;;4.62;2.70;;;;;;;;;;4205983;34;20809;-70
2023/03/25 16:50:53;;;;;;;4.57;2.35;;;;;;;;;;4209475;34;20063;-71
2023/03/25 16:53:20;;;;;;;2.67;2.33;;;;;;;;;;4210748;34;20092;-71
2023/03/25 16:55:47;;;;;;;4.37;2.90;;;;;;;;;;4209750;34;20131;-73
2023/03/25 16:58:18;;;;;;;5.22;2.47;;;;;;;;;;4197522;34;20198;-69
2023/03/25 17:00:46;;;;;;;4.20;2.37;;;;;;;;;;4196576;34;20059;-70